sensor_id;sensor_type;location;lat;lon;timestamp;temperature;humidity
16515;DHT22;8370;52.556;7.970;2023-05-16T00:02:12;11.50;99.90
16515;DHT22;8370;52.556;7.970;2023-05-16T00:04:37;11.40;99.90
16515;DHT22;8370;52.556;7.970;2023-05-16T00:07:03;11.30;99.90
16515;DHT22;8370;52.556;7.970;2023-05-16T00:09:28;11.30;99.90
16515;DHT22;8370;52.556;7.970;2023-05-16T00:11:54;11.20;99.90
16515;DHT22;8370;52.556;7.970;2023-05-16T00:14:20;11.20;99.90
16515;DHT22;8370;52.556;7.970;2023-05-16T00:16:46;11.20;99.90
16515;DHT22;8370;52.556;7.970;2023-05-16T00:19:12;11.30;99.90
16515;DHT22;8370;52.556;7.970;2023-05-16T00:21:37;11.30;99.90
16515;DHT22;8370;52.556;7.970;2023-05-16T00:24:03;11.30;99.90
16515;DHT22;8370;52.556;7.970;2023-05-16T00:26:29;11.20;99.90
16515;DHT22;8370;52.556;7.970;2023-05-16T00:28:54;11.20;99.90
16515;DHT22;8370;52.556;7.970;2023-05-16T00:31:20;11.20;99.90
16515;DHT22;8370;52.556;7.970;2023-05-16T00:33:46;11.20;99.90
16515;DHT22;8370;52.556;7.970;2023-05-16T00:36:11;11.10;99.90
16515;DHT22;8370;52.556;7.970;2023-05-16T00:38:37;11.10;99.90
16515;DHT22;8370;52.556;7.970;2023-05-16T00:41:02;11.10;99.90
16515;DHT22;8370;52.556;7.970;2023-05-16T00:43:28;11.10;99.90
16515;DHT22;8370;52.556;7.970;2023-05-16T00:45:54;11.00;99.90
16515;DHT22;8370;52.556;7.970;2023-05-16T00:48:19;11.10;99.90
16515;DHT22;8370;52.556;7.970;2023-05-16T00:50:45;11.10;99.90
16515;DHT22;8370;52.556;7.970;2023-05-16T00:53:10;11.10;99.90
16515;DHT22;8370;52.556;7.970;2023-05-16T00:55:36;11.10;99.90
16515;DHT22;8370;52.556;7.970;2023-05-16T00:58:02;11.10;99.90
16515;DHT22;8370;52.556;7.970;2023-05-16T01:00:29;11.10;99.90
16515;DHT22;8370;52.556;7.970;2023-05-16T01:02:54;11.10;99.90
16515;DHT22;8370;52.556;7.970;2023-05-16T01:05:20;11.10;99.90
16515;DHT22;8370;52.556;7.970;2023-05-16T01:07:45;11.20;99.90
16515;DHT22;8370;52.556;7.970;2023-05-16T01:10:11;11.10;99.90
16515;DHT22;8370;52.556;7.970;2023-05-16T01:12:41;11.10;99.90
16515;DHT22;8370;52.556;7.970;2023-05-16T01:15:26;11.10;99.90
16515;DHT22;8370;52.556;7.970;2023-05-16T01:17:57;11.10;99.90
16515;DHT22;8370;52.556;7.970;2023-05-16T01:20:28;11.00;99.90
16515;DHT22;8370;52.556;7.970;2023-05-16T01:23:08;11.00;99.90
16515;DHT22;8370;52.556;7.970;2023-05-16T01:28:10;10.90;99.90
16515;DHT22;8370;52.556;7.970;2023-05-16T01:30:38;10.80;99.90
16515;DHT22;8370;52.556;7.970;2023-05-16T01:33:04;10.70;99.90
16515;DHT22;8370;52.556;7.970;2023-05-16T01:35:30;10.70;99.90
16515;DHT22;8370;52.556;7.970;2023-05-16T01:40:45;10.50;99.90
16515;DHT22;8370;52.556;7.970;2023-05-16T01:43:12;10.40;99.90
16515;DHT22;8370;52.556;7.970;2023-05-16T01:45:41;10.30;99.90
16515;DHT22;8370;52.556;7.970;2023-05-16T01:48:09;10.30;99.90
16515;DHT22;8370;52.556;7.970;2023-05-16T01:50:38;10.20;99.90
16515;DHT22;8370;52.556;7.970;2023-05-16T01:53:07;10.10;99.90
16515;DHT22;8370;52.556;7.970;2023-05-16T01:55:36;10.10;99.90
16515;DHT22;8370;52.556;7.970;2023-05-16T01:58:03;10.10;99.90
16515;DHT22;8370;52.556;7.970;2023-05-16T02:00:29;10.10;99.90
16515;DHT22;8370;52.556;7.970;2023-05-16T02:02:55;10.10;99.90
16515;DHT22;8370;52.556;7.970;2023-05-16T02:05:21;10.20;99.90
16515;DHT22;8370;52.556;7.970;2023-05-16T02:07:46;10.10;99.90
16515;DHT22;8370;52.556;7.970;2023-05-16T02:10:12;10.10;99.90
16515;DHT22;8370;52.556;7.970;2023-05-16T02:12:38;10.10;99.90
16515;DHT22;8370;52.556;7.970;2023-05-16T02:15:03;10.00;99.90
16515;DHT22;8370;52.556;7.970;2023-05-16T02:17:29;9.90;99.90
16515;DHT22;8370;52.556;7.970;2023-05-16T02:19:54;9.80;99.90
16515;DHT22;8370;52.556;7.970;2023-05-16T02:22:20;9.90;99.90
16515;DHT22;8370;52.556;7.970;2023-05-16T02:24:45;9.80;99.90
16515;DHT22;8370;52.556;7.970;2023-05-16T02:27:10;9.80;99.90
16515;DHT22;8370;52.556;7.970;2023-05-16T02:29:36;9.80;99.90
16515;DHT22;8370;52.556;7.970;2023-05-16T02:32:01;9.70;99.90
16515;DHT22;8370;52.556;7.970;2023-05-16T02:34:27;9.70;99.90
16515;DHT22;8370;52.556;7.970;2023-05-16T02:36:52;9.70;99.90
16515;DHT22;8370;52.556;7.970;2023-05-16T02:39:18;9.70;99.90
16515;DHT22;8370;52.556;7.970;2023-05-16T02:41:43;9.60;99.90
16515;DHT22;8370;52.556;7.970;2023-05-16T02:44:08;9.60;99.90
16515;DHT22;8370;52.556;7.970;2023-05-16T02:46:34;9.50;99.90
16515;DHT22;8370;52.556;7.970;2023-05-16T02:48:59;9.50;99.90
16515;DHT22;8370;52.556;7.970;2023-05-16T02:51:26;9.50;99.90
16515;DHT22;8370;52.556;7.970;2023-05-16T02:53:52;9.40;99.90
16515;DHT22;8370;52.556;7.970;2023-05-16T02:56:18;9.40;99.90
16515;DHT22;8370;52.556;7.970;2023-05-16T02:58:45;9.40;99.90
16515;DHT22;8370;52.556;7.970;2023-05-16T03:01:11;9.40;99.90
16515;DHT22;8370;52.556;7.970;2023-05-16T03:03:36;9.40;99.90
16515;DHT22;8370;52.556;7.970;2023-05-16T03:06:02;9.40;99.90
16515;DHT22;8370;52.556;7.970;2023-05-16T03:08:27;9.30;99.90
16515;DHT22;8370;52.556;7.970;2023-05-16T03:10:53;9.20;99.90
16515;DHT22;8370;52.556;7.970;2023-05-16T03:13:18;9.20;99.90
16515;DHT22;8370;52.556;7.970;2023-05-16T03:15:44;9.10;99.90
16515;DHT22;8370;52.556;7.970;2023-05-16T03:18:09;9.10;99.90
16515;DHT22;8370;52.556;7.970;2023-05-16T03:20:36;9.10;99.90
16515;DHT22;8370;52.556;7.970;2023-05-16T03:23:01;9.10;99.90
16515;DHT22;8370;52.556;7.970;2023-05-16T03:25:27;9.10;99.90
16515;DHT22;8370;52.556;7.970;2023-05-16T03:27:52;9.10;99.90
16515;DHT22;8370;52.556;7.970;2023-05-16T03:30:18;9.00;99.90
16515;DHT22;8370;52.556;7.970;2023-05-16T03:32:44;9.00;99.90
16515;DHT22;8370;52.556;7.970;2023-05-16T03:35:09;9.00;99.90
16515;DHT22;8370;52.556;7.970;2023-05-16T03:37:35;9.00;99.90
16515;DHT22;8370;52.556;7.970;2023-05-16T03:40:01;8.90;99.90
16515;DHT22;8370;52.556;7.970;2023-05-16T03:42:29;8.90;99.90
16515;DHT22;8370;52.556;7.970;2023-05-16T03:44:55;8.90;99.90
16515;DHT22;8370;52.556;7.970;2023-05-16T03:47:21;8.80;99.90
16515;DHT22;8370;52.556;7.970;2023-05-16T03:49:46;8.80;99.90
16515;DHT22;8370;52.556;7.970;2023-05-16T03:52:12;8.90;99.90
16515;DHT22;8370;52.556;7.970;2023-05-16T03:54:37;8.80;99.90
16515;DHT22;8370;52.556;7.970;2023-05-16T03:57:03;8.80;99.90
16515;DHT22;8370;52.556;7.970;2023-05-16T03:59:28;8.80;99.90
16515;DHT22;8370;52.556;7.970;2023-05-16T04:01:53;8.70;99.90
16515;DHT22;8370;52.556;7.970;2023-05-16T04:04:19;8.70;99.90
16515;DHT22;8370;52.556;7.970;2023-05-16T04:06:45;8.70;99.90
16515;DHT22;8370;52.556;7.970;2023-05-16T04:09:10;8.60;99.90
16515;DHT22;8370;52.556;7.970;2023-05-16T04:11:36;8.60;99.90
16515;DHT22;8370;52.556;7.970;2023-05-16T04:14:03;8.60;99.90
16515;DHT22;8370;52.556;7.970;2023-05-16T04:16:28;8.60;99.90
16515;DHT22;8370;52.556;7.970;2023-05-16T04:18:54;8.50;99.90
16515;DHT22;8370;52.556;7.970;2023-05-16T04:21:20;8.50;99.90
16515;DHT22;8370;52.556;7.970;2023-05-16T04:23:46;8.50;99.90
16515;DHT22;8370;52.556;7.970;2023-05-16T04:26:11;8.40;99.90
16515;DHT22;8370;52.556;7.970;2023-05-16T04:28:37;8.40;99.90
16515;DHT22;8370;52.556;7.970;2023-05-16T04:31:02;8.40;99.90
16515;DHT22;8370;52.556;7.970;2023-05-16T04:33:27;8.40;99.90
16515;DHT22;8370;52.556;7.970;2023-05-16T04:35:53;8.40;99.90
16515;DHT22;8370;52.556;7.970;2023-05-16T04:38:23;8.30;99.90
16515;DHT22;8370;52.556;7.970;2023-05-16T04:40:48;8.30;99.90
16515;DHT22;8370;52.556;7.970;2023-05-16T04:43:15;8.30;99.90
16515;DHT22;8370;52.556;7.970;2023-05-16T04:45:40;8.20;99.90
16515;DHT22;8370;52.556;7.970;2023-05-16T04:48:07;8.20;99.90
16515;DHT22;8370;52.556;7.970;2023-05-16T04:50:32;8.20;99.90
16515;DHT22;8370;52.556;7.970;2023-05-16T04:52:58;8.20;99.90
16515;DHT22;8370;52.556;7.970;2023-05-16T04:55:23;8.20;99.90
16515;DHT22;8370;52.556;7.970;2023-05-16T04:57:49;8.20;99.90
16515;DHT22;8370;52.556;7.970;2023-05-16T05:00:14;8.20;99.90
16515;DHT22;8370;52.556;7.970;2023-05-16T05:02:40;8.20;99.90
16515;DHT22;8370;52.556;7.970;2023-05-16T05:05:06;8.20;99.90
16515;DHT22;8370;52.556;7.970;2023-05-16T05:07:31;8.20;99.90
16515;DHT22;8370;52.556;7.970;2023-05-16T05:09:57;8.30;99.90
16515;DHT22;8370;52.556;7.970;2023-05-16T05:12:23;8.30;99.90
16515;DHT22;8370;52.556;7.970;2023-05-16T05:14:49;8.40;99.90
16515;DHT22;8370;52.556;7.970;2023-05-16T05:17:14;8.50;99.90
16515;DHT22;8370;52.556;7.970;2023-05-16T05:19:40;8.50;99.90
16515;DHT22;8370;52.556;7.970;2023-05-16T05:22:06;8.50;99.90
16515;DHT22;8370;52.556;7.970;2023-05-16T05:24:31;8.50;99.90
16515;DHT22;8370;52.556;7.970;2023-05-16T05:26:57;8.60;99.90
16515;DHT22;8370;52.556;7.970;2023-05-16T05:29:22;8.60;99.90
16515;DHT22;8370;52.556;7.970;2023-05-16T05:31:47;8.70;99.90
16515;DHT22;8370;52.556;7.970;2023-05-16T05:34:13;8.70;99.90
16515;DHT22;8370;52.556;7.970;2023-05-16T05:36:38;8.80;99.90
16515;DHT22;8370;52.556;7.970;2023-05-16T05:39:04;8.80;99.90
16515;DHT22;8370;52.556;7.970;2023-05-16T05:41:29;8.80;99.90
16515;DHT22;8370;52.556;7.970;2023-05-16T05:43:55;8.80;99.90
16515;DHT22;8370;52.556;7.970;2023-05-16T05:46:20;8.90;99.90
16515;DHT22;8370;52.556;7.970;2023-05-16T05:48:46;8.90;99.90
16515;DHT22;8370;52.556;7.970;2023-05-16T05:51:11;9.00;99.90
16515;DHT22;8370;52.556;7.970;2023-05-16T05:53:38;9.00;99.90
16515;DHT22;8370;52.556;7.970;2023-05-16T05:56:04;9.10;99.90
16515;DHT22;8370;52.556;7.970;2023-05-16T05:58:30;9.10;99.90
16515;DHT22;8370;52.556;7.970;2023-05-16T06:00:55;9.20;99.90
16515;DHT22;8370;52.556;7.970;2023-05-16T06:03:20;9.20;99.90
16515;DHT22;8370;52.556;7.970;2023-05-16T06:05:46;9.30;99.90
16515;DHT22;8370;52.556;7.970;2023-05-16T06:08:12;9.40;99.90
16515;DHT22;8370;52.556;7.970;2023-05-16T06:10:37;9.40;99.90
16515;DHT22;8370;52.556;7.970;2023-05-16T06:13:03;9.40;99.90
16515;DHT22;8370;52.556;7.970;2023-05-16T06:15:28;9.50;99.90
16515;DHT22;8370;52.556;7.970;2023-05-16T06:17:54;9.60;99.90
16515;DHT22;8370;52.556;7.970;2023-05-16T06:20:19;9.70;99.90
16515;DHT22;8370;52.556;7.970;2023-05-16T06:22:45;9.80;99.90
16515;DHT22;8370;52.556;7.970;2023-05-16T06:25:10;9.90;99.90
16515;DHT22;8370;52.556;7.970;2023-05-16T06:27:36;9.90;99.90
16515;DHT22;8370;52.556;7.970;2023-05-16T06:30:01;10.00;99.90
16515;DHT22;8370;52.556;7.970;2023-05-16T06:32:27;10.10;99.90
16515;DHT22;8370;52.556;7.970;2023-05-16T06:34:52;10.10;99.90
16515;DHT22;8370;52.556;7.970;2023-05-16T06:37:18;10.20;99.90
16515;DHT22;8370;52.556;7.970;2023-05-16T06:39:43;10.20;99.90
16515;DHT22;8370;52.556;7.970;2023-05-16T06:42:09;10.30;99.90
16515;DHT22;8370;52.556;7.970;2023-05-16T06:44:35;10.40;99.90
16515;DHT22;8370;52.556;7.970;2023-05-16T06:47:00;10.60;99.90
16515;DHT22;8370;52.556;7.970;2023-05-16T06:49:26;10.70;99.90
16515;DHT22;8370;52.556;7.970;2023-05-16T06:51:51;10.70;99.90
16515;DHT22;8370;52.556;7.970;2023-05-16T06:54:16;10.80;99.90
16515;DHT22;8370;52.556;7.970;2023-05-16T06:56:42;10.90;99.90
16515;DHT22;8370;52.556;7.970;2023-05-16T06:59:07;10.90;99.90
16515;DHT22;8370;52.556;7.970;2023-05-16T07:01:33;11.00;99.90
16515;DHT22;8370;52.556;7.970;2023-05-16T07:03:58;11.10;99.90
16515;DHT22;8370;52.556;7.970;2023-05-16T07:06:23;11.20;99.90
16515;DHT22;8370;52.556;7.970;2023-05-16T07:08:49;11.30;99.90
16515;DHT22;8370;52.556;7.970;2023-05-16T07:11:16;11.20;99.90
16515;DHT22;8370;52.556;7.970;2023-05-16T07:13:41;11.10;99.90
16515;DHT22;8370;52.556;7.970;2023-05-16T07:16:07;11.10;99.90
16515;DHT22;8370;52.556;7.970;2023-05-16T07:18:32;11.10;99.90
16515;DHT22;8370;52.556;7.970;2023-05-16T07:20:58;11.20;99.90
16515;DHT22;8370;52.556;7.970;2023-05-16T07:23:23;11.30;99.90
16515;DHT22;8370;52.556;7.970;2023-05-16T07:25:48;11.40;99.90
16515;DHT22;8370;52.556;7.970;2023-05-16T07:28:14;11.50;99.90
16515;DHT22;8370;52.556;7.970;2023-05-16T07:30:39;11.60;99.90
16515;DHT22;8370;52.556;7.970;2023-05-16T07:33:05;11.70;99.90
16515;DHT22;8370;52.556;7.970;2023-05-16T07:35:30;11.60;99.90
16515;DHT22;8370;52.556;7.970;2023-05-16T07:37:56;11.60;99.90
16515;DHT22;8370;52.556;7.970;2023-05-16T07:40:21;11.60;99.90
16515;DHT22;8370;52.556;7.970;2023-05-16T07:42:53;11.50;99.90
16515;DHT22;8370;52.556;7.970;2023-05-16T07:45:19;11.50;99.90
16515;DHT22;8370;52.556;7.970;2023-05-16T07:47:44;11.60;99.90
16515;DHT22;8370;52.556;7.970;2023-05-16T07:50:10;11.70;99.90
16515;DHT22;8370;52.556;7.970;2023-05-16T07:52:36;11.70;99.90
16515;DHT22;8370;52.556;7.970;2023-05-16T07:55:01;11.70;99.90
16515;DHT22;8370;52.556;7.970;2023-05-16T07:57:27;11.90;99.90
16515;DHT22;8370;52.556;7.970;2023-05-16T07:59:53;12.20;99.90
16515;DHT22;8370;52.556;7.970;2023-05-16T08:02:18;12.30;99.90
16515;DHT22;8370;52.556;7.970;2023-05-16T08:04:44;12.20;99.90
16515;DHT22;8370;52.556;7.970;2023-05-16T08:07:10;12.00;99.90
16515;DHT22;8370;52.556;7.970;2023-05-16T08:09:35;11.90;99.90
16515;DHT22;8370;52.556;7.970;2023-05-16T08:12:02;11.90;99.90
16515;DHT22;8370;52.556;7.970;2023-05-16T08:14:29;12.00;99.90
16515;DHT22;8370;52.556;7.970;2023-05-16T08:16:54;12.10;99.90
16515;DHT22;8370;52.556;7.970;2023-05-16T08:19:20;12.40;99.90
16515;DHT22;8370;52.556;7.970;2023-05-16T08:21:45;12.70;99.90
16515;DHT22;8370;52.556;7.970;2023-05-16T08:24:11;13.00;99.90
16515;DHT22;8370;52.556;7.970;2023-05-16T08:26:36;13.10;99.90
16515;DHT22;8370;52.556;7.970;2023-05-16T08:29:02;13.30;99.90
16515;DHT22;8370;52.556;7.970;2023-05-16T08:31:29;13.50;99.90
16515;DHT22;8370;52.556;7.970;2023-05-16T08:33:54;13.60;99.90
16515;DHT22;8370;52.556;7.970;2023-05-16T08:36:19;13.70;99.90
16515;DHT22;8370;52.556;7.970;2023-05-16T08:38:45;13.60;99.90
16515;DHT22;8370;52.556;7.970;2023-05-16T08:41:10;13.50;99.90
16515;DHT22;8370;52.556;7.970;2023-05-16T08:43:36;13.60;99.90
16515;DHT22;8370;52.556;7.970;2023-05-16T08:46:01;13.70;99.90
16515;DHT22;8370;52.556;7.970;2023-05-16T08:48:27;13.70;99.90
16515;DHT22;8370;52.556;7.970;2023-05-16T08:50:52;13.60;99.90
16515;DHT22;8370;52.556;7.970;2023-05-16T08:53:21;13.70;99.90
16515;DHT22;8370;52.556;7.970;2023-05-16T08:55:49;13.60;99.90
16515;DHT22;8370;52.556;7.970;2023-05-16T08:58:15;13.40;99.90
16515;DHT22;8370;52.556;7.970;2023-05-16T09:00:41;13.50;99.90
16515;DHT22;8370;52.556;7.970;2023-05-16T09:03:07;13.70;99.90
16515;DHT22;8370;52.556;7.970;2023-05-16T09:05:33;14.00;99.90
16515;DHT22;8370;52.556;7.970;2023-05-16T09:07:59;14.00;99.90
16515;DHT22;8370;52.556;7.970;2023-05-16T09:10:24;13.90;99.90
16515;DHT22;8370;52.556;7.970;2023-05-16T09:12:50;13.60;99.90
16515;DHT22;8370;52.556;7.970;2023-05-16T09:15:17;13.30;99.90
16515;DHT22;8370;52.556;7.970;2023-05-16T09:17:44;13.10;99.90
16515;DHT22;8370;52.556;7.970;2023-05-16T09:20:13;12.90;99.90
16515;DHT22;8370;52.556;7.970;2023-05-16T09:22:39;12.70;99.90
16515;DHT22;8370;52.556;7.970;2023-05-16T09:25:05;12.60;99.90
16515;DHT22;8370;52.556;7.970;2023-05-16T09:27:31;12.70;99.90
16515;DHT22;8370;52.556;7.970;2023-05-16T09:29:57;12.80;99.90
16515;DHT22;8370;52.556;7.970;2023-05-16T09:32:23;12.90;99.90
16515;DHT22;8370;52.556;7.970;2023-05-16T09:34:48;13.10;99.90
16515;DHT22;8370;52.556;7.970;2023-05-16T09:37:16;13.20;99.90
16515;DHT22;8370;52.556;7.970;2023-05-16T09:39:48;13.30;99.90
16515;DHT22;8370;52.556;7.970;2023-05-16T09:42:15;13.50;99.90
16515;DHT22;8370;52.556;7.970;2023-05-16T09:44:45;13.70;99.90
16515;DHT22;8370;52.556;7.970;2023-05-16T09:47:12;14.00;99.90
16515;DHT22;8370;52.556;7.970;2023-05-16T09:49:38;14.20;99.90
16515;DHT22;8370;52.556;7.970;2023-05-16T09:52:03;14.40;99.90
16515;DHT22;8370;52.556;7.970;2023-05-16T09:54:33;14.30;99.90
16515;DHT22;8370;52.556;7.970;2023-05-16T09:56:58;14.40;99.90
16515;DHT22;8370;52.556;7.970;2023-05-16T09:59:25;14.50;99.90
16515;DHT22;8370;52.556;7.970;2023-05-16T10:01:52;14.60;99.90
16515;DHT22;8370;52.556;7.970;2023-05-16T10:04:18;14.70;99.90
16515;DHT22;8370;52.556;7.970;2023-05-16T10:06:44;14.60;99.90
16515;DHT22;8370;52.556;7.970;2023-05-16T10:09:10;14.60;99.90
16515;DHT22;8370;52.556;7.970;2023-05-16T10:11:36;14.80;99.90
16515;DHT22;8370;52.556;7.970;2023-05-16T10:14:02;15.00;99.90
16515;DHT22;8370;52.556;7.970;2023-05-16T10:16:29;15.00;99.90
16515;DHT22;8370;52.556;7.970;2023-05-16T10:18:55;14.80;99.90
16515;DHT22;8370;52.556;7.970;2023-05-16T10:21:22;14.80;99.90
16515;DHT22;8370;52.556;7.970;2023-05-16T10:23:47;14.70;99.90
16515;DHT22;8370;52.556;7.970;2023-05-16T10:26:15;14.30;99.90
16515;DHT22;8370;52.556;7.970;2023-05-16T10:28:41;14.10;99.90
16515;DHT22;8370;52.556;7.970;2023-05-16T10:31:06;14.20;99.90
16515;DHT22;8370;52.556;7.970;2023-05-16T10:33:32;14.10;99.90
16515;DHT22;8370;52.556;7.970;2023-05-16T10:35:59;14.20;99.90
16515;DHT22;8370;52.556;7.970;2023-05-16T10:38:26;14.30;99.90
16515;DHT22;8370;52.556;7.970;2023-05-16T10:40:52;14.40;99.90
16515;DHT22;8370;52.556;7.970;2023-05-16T10:43:21;14.40;99.90
16515;DHT22;8370;52.556;7.970;2023-05-16T10:45:52;14.50;99.90
16515;DHT22;8370;52.556;7.970;2023-05-16T10:48:18;14.60;99.90
16515;DHT22;8370;52.556;7.970;2023-05-16T10:50:52;14.80;99.90
16515;DHT22;8370;52.556;7.970;2023-05-16T10:55:44;15.10;99.90
16515;DHT22;8370;52.556;7.970;2023-05-16T10:58:17;15.30;99.90
16515;DHT22;8370;52.556;7.970;2023-05-16T11:00:42;15.20;99.90
16515;DHT22;8370;52.556;7.970;2023-05-16T11:03:18;15.30;99.90
16515;DHT22;8370;52.556;7.970;2023-05-16T11:05:50;15.30;99.90
16515;DHT22;8370;52.556;7.970;2023-05-16T11:08:16;15.60;99.90
16515;DHT22;8370;52.556;7.970;2023-05-16T11:10:42;15.90;99.90
16515;DHT22;8370;52.556;7.970;2023-05-16T11:13:07;16.30;99.90
16515;DHT22;8370;52.556;7.970;2023-05-16T11:15:33;16.20;99.90
16515;DHT22;8370;52.556;7.970;2023-05-16T11:18:03;16.30;99.90
16515;DHT22;8370;52.556;7.970;2023-05-16T11:20:29;16.10;99.90
16515;DHT22;8370;52.556;7.970;2023-05-16T11:25:40;15.90;99.90
16515;DHT22;8370;52.556;7.970;2023-05-16T11:28:07;15.90;99.90
16515;DHT22;8370;52.556;7.970;2023-05-16T11:30:32;16.10;99.90
16515;DHT22;8370;52.556;7.970;2023-05-16T11:32:58;16.30;99.90
16515;DHT22;8370;52.556;7.970;2023-05-16T11:35:23;16.20;99.90
16515;DHT22;8370;52.556;7.970;2023-05-16T11:37:48;16.10;99.90
16515;DHT22;8370;52.556;7.970;2023-05-16T11:40:14;16.20;99.90
16515;DHT22;8370;52.556;7.970;2023-05-16T11:42:42;16.30;99.90
16515;DHT22;8370;52.556;7.970;2023-05-16T11:45:18;16.40;99.90
16515;DHT22;8370;52.556;7.970;2023-05-16T11:47:45;16.30;99.90
16515;DHT22;8370;52.556;7.970;2023-05-16T11:50:12;16.40;99.90
16515;DHT22;8370;52.556;7.970;2023-05-16T11:52:38;16.50;99.90
16515;DHT22;8370;52.556;7.970;2023-05-16T11:55:06;16.70;99.90
16515;DHT22;8370;52.556;7.970;2023-05-16T11:57:32;17.10;99.90
16515;DHT22;8370;52.556;7.970;2023-05-16T12:00:17;17.80;99.90
16515;DHT22;8370;52.556;7.970;2023-05-16T12:02:44;18.60;99.90
16515;DHT22;8370;52.556;7.970;2023-05-16T12:05:09;20.20;99.90
16515;DHT22;8370;52.556;7.970;2023-05-16T12:07:35;21.90;99.90
16515;DHT22;8370;52.556;7.970;2023-05-16T12:10:07;23.40;99.90
16515;DHT22;8370;52.556;7.970;2023-05-16T12:12:34;24.20;99.90
16515;DHT22;8370;52.556;7.970;2023-05-16T12:15:00;24.40;99.90
16515;DHT22;8370;52.556;7.970;2023-05-16T12:17:26;25.50;99.80
16515;DHT22;8370;52.556;7.970;2023-05-16T12:19:52;26.60;97.80
16515;DHT22;8370;52.556;7.970;2023-05-16T12:22:18;27.60;92.00
16515;DHT22;8370;52.556;7.970;2023-05-16T12:24:43;27.50;87.10
16515;DHT22;8370;52.556;7.970;2023-05-16T12:27:09;28.10;83.60
16515;DHT22;8370;52.556;7.970;2023-05-16T12:29:35;28.10;79.90
16515;DHT22;8370;52.556;7.970;2023-05-16T12:32:00;27.90;79.20
16515;DHT22;8370;52.556;7.970;2023-05-16T12:34:27;27.30;77.90
16515;DHT22;8370;52.556;7.970;2023-05-16T12:36:53;26.90;79.60
16515;DHT22;8370;52.556;7.970;2023-05-16T12:39:18;26.80;78.60
16515;DHT22;8370;52.556;7.970;2023-05-16T12:41:44;25.70;77.70
16515;DHT22;8370;52.556;7.970;2023-05-16T12:44:13;24.50;76.70
16515;DHT22;8370;52.556;7.970;2023-05-16T12:46:50;23.80;78.90
16515;DHT22;8370;52.556;7.970;2023-05-16T12:49:19;22.60;81.00
16515;DHT22;8370;52.556;7.970;2023-05-16T12:51:52;21.00;86.00
16515;DHT22;8370;52.556;7.970;2023-05-16T12:54:18;19.30;89.80
16515;DHT22;8370;52.556;7.970;2023-05-16T12:56:44;17.90;92.20
16515;DHT22;8370;52.556;7.970;2023-05-16T12:59:09;16.90;94.40
16515;DHT22;8370;52.556;7.970;2023-05-16T13:01:36;16.20;96.50
16515;DHT22;8370;52.556;7.970;2023-05-16T13:04:02;15.60;99.90
16515;DHT22;8370;52.556;7.970;2023-05-16T13:06:28;15.20;99.90
16515;DHT22;8370;52.556;7.970;2023-05-16T13:08:53;15.10;99.90
16515;DHT22;8370;52.556;7.970;2023-05-16T13:11:19;15.40;99.90
16515;DHT22;8370;52.556;7.970;2023-05-16T13:13:45;15.40;99.90
16515;DHT22;8370;52.556;7.970;2023-05-16T13:16:10;15.50;99.90
16515;DHT22;8370;52.556;7.970;2023-05-16T13:18:36;16.50;99.90
16515;DHT22;8370;52.556;7.970;2023-05-16T13:21:02;18.20;99.90
16515;DHT22;8370;52.556;7.970;2023-05-16T13:23:30;19.90;99.90
16515;DHT22;8370;52.556;7.970;2023-05-16T13:25:55;20.70;99.20
16515;DHT22;8370;52.556;7.970;2023-05-16T13:28:21;21.20;97.70
16515;DHT22;8370;52.556;7.970;2023-05-16T13:30:46;21.40;97.80
16515;DHT22;8370;52.556;7.970;2023-05-16T13:33:12;20.90;95.40
16515;DHT22;8370;52.556;7.970;2023-05-16T13:35:37;20.70;96.20
16515;DHT22;8370;52.556;7.970;2023-05-16T13:38:03;20.70;96.90
16515;DHT22;8370;52.556;7.970;2023-05-16T13:40:28;20.70;96.40
16515;DHT22;8370;52.556;7.970;2023-05-16T13:42:54;20.30;95.80
16515;DHT22;8370;52.556;7.970;2023-05-16T13:45:19;20.10;96.40
16515;DHT22;8370;52.556;7.970;2023-05-16T13:47:45;19.30;95.70
16515;DHT22;8370;52.556;7.970;2023-05-16T13:50:11;18.50;96.60
16515;DHT22;8370;52.556;7.970;2023-05-16T13:52:36;18.10;98.00
16515;DHT22;8370;52.556;7.970;2023-05-16T13:55:02;18.00;99.40
16515;DHT22;8370;52.556;7.970;2023-05-16T13:57:28;18.10;98.60
16515;DHT22;8370;52.556;7.970;2023-05-16T13:59:53;18.20;99.90
16515;DHT22;8370;52.556;7.970;2023-05-16T14:02:19;18.20;99.40
16515;DHT22;8370;52.556;7.970;2023-05-16T14:04:44;18.20;99.90
16515;DHT22;8370;52.556;7.970;2023-05-16T14:07:10;17.80;99.90
16515;DHT22;8370;52.556;7.970;2023-05-16T14:09:35;17.40;99.90
16515;DHT22;8370;52.556;7.970;2023-05-16T14:12:04;17.10;99.90
16515;DHT22;8370;52.556;7.970;2023-05-16T14:14:29;16.80;99.90
16515;DHT22;8370;52.556;7.970;2023-05-16T14:16:55;16.60;99.90
16515;DHT22;8370;52.556;7.970;2023-05-16T14:19:20;16.50;99.90
16515;DHT22;8370;52.556;7.970;2023-05-16T14:21:46;16.60;99.90
16515;DHT22;8370;52.556;7.970;2023-05-16T14:24:11;17.20;99.90
16515;DHT22;8370;52.556;7.970;2023-05-16T14:26:37;17.80;99.90
16515;DHT22;8370;52.556;7.970;2023-05-16T14:29:02;18.30;99.90
16515;DHT22;8370;52.556;7.970;2023-05-16T14:31:28;18.20;98.70
16515;DHT22;8370;52.556;7.970;2023-05-16T14:33:53;18.00;99.90
16515;DHT22;8370;52.556;7.970;2023-05-16T14:36:19;17.90;99.90
16515;DHT22;8370;52.556;7.970;2023-05-16T14:38:44;17.60;99.90
16515;DHT22;8370;52.556;7.970;2023-05-16T14:41:10;17.30;99.90
16515;DHT22;8370;52.556;7.970;2023-05-16T14:43:35;17.20;99.90
16515;DHT22;8370;52.556;7.970;2023-05-16T14:46:02;16.90;99.90
16515;DHT22;8370;52.556;7.970;2023-05-16T14:48:27;16.60;99.90
16515;DHT22;8370;52.556;7.970;2023-05-16T14:50:53;16.70;99.90
16515;DHT22;8370;52.556;7.970;2023-05-16T14:53:18;17.40;99.90
16515;DHT22;8370;52.556;7.970;2023-05-16T14:55:45;17.90;97.90
16515;DHT22;8370;52.556;7.970;2023-05-16T14:58:11;18.40;97.40
16515;DHT22;8370;52.556;7.970;2023-05-16T15:00:36;18.50;97.40
16515;DHT22;8370;52.556;7.970;2023-05-16T15:03:02;18.40;96.80
16515;DHT22;8370;52.556;7.970;2023-05-16T15:05:27;18.00;97.40
16515;DHT22;8370;52.556;7.970;2023-05-16T15:07:53;17.50;97.20
16515;DHT22;8370;52.556;7.970;2023-05-16T15:10:18;16.90;98.20
16515;DHT22;8370;52.556;7.970;2023-05-16T15:12:44;16.30;99.60
16515;DHT22;8370;52.556;7.970;2023-05-16T15:15:10;16.00;99.90
16515;DHT22;8370;52.556;7.970;2023-05-16T15:17:36;15.70;99.90
16515;DHT22;8370;52.556;7.970;2023-05-16T15:20:02;15.50;99.90
16515;DHT22;8370;52.556;7.970;2023-05-16T15:22:28;15.40;99.90
16515;DHT22;8370;52.556;7.970;2023-05-16T15:24:53;15.10;99.90
16515;DHT22;8370;52.556;7.970;2023-05-16T15:27:19;15.10;99.90
16515;DHT22;8370;52.556;7.970;2023-05-16T15:29:44;15.10;99.90
16515;DHT22;8370;52.556;7.970;2023-05-16T15:32:10;15.10;99.90
16515;DHT22;8370;52.556;7.970;2023-05-16T15:34:37;15.10;99.90
16515;DHT22;8370;52.556;7.970;2023-05-16T15:37:03;14.90;99.90
16515;DHT22;8370;52.556;7.970;2023-05-16T15:39:28;14.90;99.90
16515;DHT22;8370;52.556;7.970;2023-05-16T15:41:54;14.90;99.90
16515;DHT22;8370;52.556;7.970;2023-05-16T15:44:19;14.80;99.90
16515;DHT22;8370;52.556;7.970;2023-05-16T15:46:45;14.70;99.90
16515;DHT22;8370;52.556;7.970;2023-05-16T15:49:10;14.80;99.90
16515;DHT22;8370;52.556;7.970;2023-05-16T15:51:37;14.80;99.90
16515;DHT22;8370;52.556;7.970;2023-05-16T15:54:02;14.80;99.90